Time;durP1;ratioP1;P1;durP2;ratioP2;P2;SDS_P1;SDS_P2;PMS_P1;PMS_P2;Temp;Humidity;BMP_temperature;BMP_pressure;BME280_temperature;BME280_humidity;BME280_pressure;Samples;Min_cycle;Max_cycle;Signal;HPM_P1;HPM_P2
2023/10/28 00:00:43;;;;;;;12.38;4.88;;;;;;;9.05;100.00;99385.25;5029277;28;20396;-70
2023/10/28 00:03:09;;;;;;;13.68;5.97;;;;;;;9.07;100.00;99391.38;5029207;28;20121;-69
2023/10/28 00:05:34;;;;;;;11.52;4.55;;;;;;;9.09;100.00;99392.09;5028927;28;20472;-70
2023/10/28 00:08:01;;;;;;;9.90;4.25;;;;;;;9.10;100.00;99389.25;5028080;28;20045;-71
2023/10/28 00:10:26;;;;;;;10.55;4.40;;;;;;;9.13;100.00;99397.09;5010590;28;20045;-71
2023/10/28 00:12:52;;;;;;;19.13;5.22;;;;;;;9.16;100.00;99393.28;5008720;28;20022;-69
2023/10/28 00:15:20;;;;;;;10.85;4.93;;;;;;;9.17;100.00;99392.25;5009434;28;20077;-70
2023/10/28 00:17:50;;;;;;;12.70;5.00;;;;;;;9.20;100.00;99401.00;5015789;28;20490;-70
2023/10/28 00:20:17;;;;;;;11.98;4.13;;;;;;;9.22;100.00;99391.84;5012568;28;20386;-70
2023/10/28 00:22:44;;;;;;;17.02;4.63;;;;;;;9.22;100.00;99387.28;5013310;28;20083;-69
2023/10/28 00:25:11;;;;;;;15.98;4.47;;;;;;;9.24;100.00;99388.03;5013938;28;20038;-70
2023/10/28 00:27:36;;;;;;;16.13;5.45;;;;;;;9.26;100.00;99386.00;5014159;28;20478;-70
2023/10/28 00:30:02;;;;;;;17.60;5.18;;;;;;;9.29;100.00;99384.88;5013311;28;20022;-70
2023/10/28 00:32:27;;;;;;;10.93;4.38;;;;;;;9.29;100.00;99391.16;5011851;28;20482;-71
2023/10/28 00:34:53;;;;;;;15.18;4.60;;;;;;;9.30;100.00;99392.88;5013819;28;20441;-70
2023/10/28 00:37:18;;;;;;;18.63;5.10;;;;;;;9.32;100.00;99382.72;5026361;28;20045;-69
2023/10/28 00:39:44;;;;;;;11.93;4.07;;;;;;;9.33;100.00;99387.19;5031771;28;20031;-69
2023/10/28 00:42:13;;;;;;;14.98;4.20;;;;;;;9.36;100.00;99388.75;5032763;28;20060;-70
2023/10/28 00:44:39;;;;;;;10.10;3.85;;;;;;;9.37;100.00;99387.75;5032771;28;20038;-70
2023/10/28 00:47:05;;;;;;;11.93;4.40;;;;;;;9.36;100.00;99386.88;5028457;28;20108;-71
2023/10/28 00:49:31;;;;;;;15.77;3.92;;;;;;;9.37;100.00;99388.63;5012964;28;20045;-69
2023/10/28 00:51:58;;;;;;;15.93;4.78;;;;;;;9.39;100.00;99392.03;5029762;28;20044;-69
2023/10/28 00:54:24;;;;;;;15.45;3.85;;;;;;;9.40;100.00;99382.03;5033115;28;20045;-70
2023/10/28 00:56:50;;;;;;;9.75;3.55;;;;;;;9.41;100.00;99387.31;5032703;28;20124;-69
2023/10/28 00:59:16;;;;;;;10.20;3.33;;;;;;;9.44;100.00;99387.06;5032718;28;20388;-71
2023/10/28 01:01:42;;;;;;;12.48;3.85;;;;;;;9.46;100.00;99384.19;5030872;28;20033;-70
2023/10/28 01:04:10;;;;;;;9.27;3.58;;;;;;;9.49;100.00;99385.78;5014887;28;20445;-71
2023/10/28 01:06:37;;;;;;;11.60;3.28;;;;;;;9.49;100.00;99383.06;5028916;28;20053;-70
2023/10/28 01:09:02;;;;;;;4.70;2.70;;;;;;;9.48;100.00;99386.78;5011575;28;20046;-70
2023/10/28 01:11:28;;;;;;;7.25;3.38;;;;;;;9.52;100.00;99388.22;5019626;28;20026;-70
2023/10/28 01:13:54;;;;;;;10.27;3.47;;;;;;;9.53;100.00;99384.50;5032796;28;20559;-69
2023/10/28 01:16:20;;;;;;;8.45;2.97;;;;;;;9.54;100.00;99395.22;5030867;28;20033;-70
2023/10/28 01:18:45;;;;;;;10.32;3.00;;;;;;;9.55;100.00;99390.63;5032151;28;20047;-70
2023/10/28 01:21:11;;;;;;;15.55;3.50;;;;;;;9.55;100.00;99390.63;5030769;28;20319;-70
2023/10/28 01:23:37;;;;;;;7.07;2.60;;;;;;;9.54;100.00;99386.22;5032272;28;20474;-70
2023/10/28 01:26:05;;;;;;;8.07;2.85;;;;;;;9.54;100.00;99395.22;5030968;28;20103;-70
2023/10/28 01:28:30;;;;;;;10.18;2.78;;;;;;;9.54;100.00;99384.34;5031833;28;20393;-71
2023/10/28 01:30:56;;;;;;;8.23;2.85;;;;;;;9.56;100.00;99389.63;5030632;28;20032;-70
2023/10/28 01:33:22;;;;;;;6.78;2.70;;;;;;;9.60;100.00;99386.50;5017286;28;20037;-73
2023/10/28 01:35:47;;;;;;;6.35;2.65;;;;;;;9.59;100.00;99392.94;5012373;28;20397;-70
2023/10/28 01:38:13;;;;;;;11.95;2.60;;;;;;;9.62;100.00;99389.09;5012665;28;20109;-70
2023/10/28 01:40:38;;;;;;;11.32;2.40;;;;;;;9.65;100.00;99391.50;5010873;28;20033;-70
2023/10/28 01:43:04;;;;;;;6.13;2.35;;;;;;;9.65;100.00;99384.25;5010943;28;20125;-70
2023/10/28 01:45:30;;;;;;;4.88;2.35;;;;;;;9.64;100.00;99387.94;5012649;28;20044;-70
2023/10/28 01:47:58;;;;;;;3.50;2.17;;;;;;;9.64;100.00;99392.50;5012360;28;20105;-72
2023/10/28 01:50:23;;;;;;;7.40;2.63;;;;;;;9.64;100.00;99393.38;5012111;28;20116;-70
2023/10/28 01:52:49;;;;;;;4.85;2.47;;;;;;;9.63;100.00;99386.22;5027000;28;20038;-70
2023/10/28 01:55:14;;;;;;;5.13;2.17;;;;;;;9.66;100.00;99391.38;5027684;28;20041;-70
2023/10/28 01:57:40;;;;;;;6.13;2.83;;;;;;;9.68;100.00;99388.53;5030374;28;20075;-69
2023/10/28 02:00:12;;;;;;;5.68;2.45;;;;;;;9.66;100.00;99382.38;5030214;28;20129;-70
2023/10/28 02:02:38;;;;;;;5.13;2.70;;;;;;;9.65;100.00;99381.53;5031501;28;20025;-70
2023/10/28 02:05:04;;;;;;;10.50;2.35;;;;;;;9.64;100.00;99387.09;5031340;28;20144;-70
2023/10/28 02:07:30;;;;;;;5.13;2.40;;;;;;;9.64;100.00;99381.66;5029697;28;20394;-70
2023/10/28 02:09:56;;;;;;;4.78;2.00;;;;;;;9.65;100.00;99376.09;5031705;28;20043;-70
2023/10/28 02:12:21;;;;;;;6.15;2.05;;;;;;;9.65;100.00;99378.81;5031239;28;20056;-70
2023/10/28 02:14:48;;;;;;;3.95;1.90;;;;;;;9.64;100.00;99376.22;5031367;28;20485;-70
2023/10/28 02:17:13;;;;;;;5.03;1.95;;;;;;;9.66;100.00;99375.09;5026270;28;20032;-69
2023/10/28 02:19:39;;;;;;;4.63;2.08;;;;;;;9.64;100.00;99377.06;5009895;28;20033;-70
2023/10/28 02:22:04;;;;;;;6.25;2.10;;;;;;;9.64;100.00;99378.94;5023763;28;20448;-70
2023/10/28 02:24:30;;;;;;;4.32;2.15;;;;;;;9.65;100.00;99377.94;5029959;28;20339;-70
2023/10/28 02:26:55;;;;;;;4.95;2.20;;;;;;;9.62;100.00;99376.38;5029995;28;20119;-70
2023/10/28 02:29:21;;;;;;;3.25;1.77;;;;;;;9.61;100.00;99380.09;5030989;28;20136;-71
2023/10/28 02:31:48;;;;;;;4.75;2.10;;;;;;;9.59;100.00;99375.78;5027982;28;20029;-71
2023/10/28 02:34:13;;;;;;;4.25;1.85;;;;;;;9.56;100.00;99374.22;5011971;28;20057;-70
2023/10/28 02:36:39;;;;;;;4.40;2.20;;;;;;;9.58;100.00;99382.22;5010912;28;20112;-70
2023/10/28 02:39:05;;;;;;;7.05;2.95;;;;;;;9.55;100.00;99377.91;5011327;28;20049;-70
2023/10/28 02:41:31;;;;;;;2.83;1.92;;;;;;;9.55;100.00;99377.91;5008213;28;20077;-70
2023/10/28 02:43:57;;;;;;;5.95;1.88;;;;;;;9.54;100.00;99376.22;5011964;28;20451;-70
2023/10/28 02:46:24;;;;;;;5.32;1.75;;;;;;;9.53;100.00;99390.78;5011389;28;20033;-70
2023/10/28 02:48:49;;;;;;;6.32;2.05;;;;;;;9.52;100.00;99382.78;5028214;28;20378;-71
2023/10/28 02:51:16;;;;;;;4.90;1.90;;;;;;;9.50;100.00;99388.34;5018930;28;20041;-70
2023/10/28 02:53:41;;;;;;;5.57;1.95;;;;;;;9.50;100.00;99387.50;5009769;28;20071;-70
2023/10/28 02:56:06;;;;;;;5.30;1.85;;;;;;;9.48;100.00;99382.22;5022050;28;20044;-70
2023/10/28 02:58:32;;;;;;;4.88;1.92;;;;;;;9.48;100.00;99393.06;5029219;28;20489;-70
2023/10/28 03:01:09;;;;;;;5.25;1.90;;;;;;;9.46;100.00;99395.03;5029084;28;20033;-71
2023/10/28 03:03:35;;;;;;;4.53;1.58;;;;;;;9.45;100.00;99391.47;5011886;28;20032;-70
2023/10/28 03:06:03;;;;;;;6.38;1.80;;;;;;;9.44;100.00;99397.91;5009153;28;20034;-70
2023/10/28 03:08:28;;;;;;;5.70;1.88;;;;;;;9.41;100.00;99392.75;5010447;28;20070;-71
2023/10/28 03:10:54;;;;;;;8.65;2.40;;;;;;;9.44;100.00;99397.06;5009413;28;20516;-70
2023/10/28 03:13:19;;;;;;;4.20;2.17;;;;;;;9.47;100.00;99404.06;5023485;28;20045;-69
2023/10/28 03:15:46;;;;;;;5.18;2.22;;;;;;;9.48;100.00;99394.94;5030143;28;20527;-70
2023/10/28 03:18:13;;;;;;;7.07;2.65;;;;;;;9.48;100.00;99393.06;5024472;28;20037;-70
2023/10/28 03:20:38;;;;;;;6.07;3.10;;;;;;;9.44;100.00;99386.19;5028728;28;20037;-70
2023/10/28 03:23:04;;;;;;;7.50;3.20;;;;;;;9.42;100.00;99380.06;5029937;28;20373;-72
2023/10/28 03:25:31;;;;;;;5.60;2.15;;;;;;;9.39;100.00;99383.91;5030051;28;20037;-70
2023/10/28 03:28:00;;;;;;;5.18;2.70;;;;;;;9.36;100.00;99388.75;5015959;28;20466;-70
2023/10/28 03:30:26;;;;;;;5.57;2.45;;;;;;;9.30;100.00;99384.75;5010581;28;20644;-70
2023/10/28 03:32:51;;;;;;;6.40;2.55;;;;;;;9.26;100.00;99393.28;5014373;28;20018;-70
2023/10/28 03:35:17;;;;;;;2.70;2.20;;;;;;;9.20;100.00;99395.56;5008866;28;20045;-70
2023/10/28 03:37:44;;;;;;;7.18;2.63;;;;;;;9.17;100.00;99393.13;5010034;28;20026;-69
2023/10/28 03:40:10;;;;;;;3.92;2.28;;;;;;;9.15;100.00;99394.28;5010141;28;20038;-69
2023/10/28 03:42:36;;;;;;;9.77;2.70;;;;;;;9.11;100.00;99390.97;5028452;28;20029;-70
2023/10/28 03:45:08;;;;;;;4.45;2.22;;;;;;;9.10;100.00;99391.97;5029881;28;20543;-70
2023/10/28 03:47:34;;;;;;;6.18;2.50;;;;;;;9.07;100.00;99394.09;5029636;28;20033;-70
2023/10/28 03:50:00;;;;;;;6.75;2.25;;;;;;;9.05;100.00;99394.25;5028838;28;20055;-70
2023/10/28 03:52:26;;;;;;;4.68;2.63;;;;;;;9.04;100.00;99394.34;5010580;28;20056;-70
2023/10/28 03:54:51;;;;;;;4.50;1.95;;;;;;;9.02;100.00;99390.94;5009921;28;20129;-70
2023/10/28 03:57:16;;;;;;;4.18;2.13;;;;;;;9.01;100.00;99395.50;5020854;28;20534;-70
2023/10/28 03:59:42;;;;;;;7.53;2.10;;;;;;;9.02;100.00;99396.38;5029687;28;20501;-69
2023/10/28 04:02:07;;;;;;;8.88;2.78;;;;;;;9.02;100.00;99393.66;5011705;28;20492;-70
2023/10/28 04:04:33;;;;;;;4.25;2.05;;;;;;;9.02;100.00;99386.38;5028582;28;20033;-69
2023/10/28 04:06:59;;;;;;;4.30;2.15;;;;;;;9.03;100.00;99389.94;5029107;28;20049;-71
2023/10/28 04:09:24;;;;;;;6.07;2.00;;;;;;;9.03;100.00;99388.06;5029863;28;20092;-70
2023/10/28 04:11:49;;;;;;;4.93;2.10;;;;;;;9.04;100.00;99381.66;5029521;28;20037;-71
2023/10/28 04:14:16;;;;;;;6.00;2.45;;;;;;;9.07;100.00;99391.38;5029538;28;20242;-70
2023/10/28 04:16:41;;;;;;;8.30;2.00;;;;;;;9.08;100.00;99374.09;5028953;28;20025;-70
2023/10/28 04:19:07;;;;;;;8.00;2.35;;;;;;;9.08;100.00;99384.94;5029777;28;20112;-70
2023/10/28 04:21:33;;;;;;;5.65;2.10;;;;;;;9.09;100.00;99386.66;5027867;28;20037;-70
2023/10/28 04:23:58;;;;;;;5.72;2.22;;;;;;;9.09;100.00;99382.13;5029498;28;20045;-70
2023/10/28 04:26:24;;;;;;;5.10;2.17;;;;;;;9.11;100.00;99374.69;5029752;28;20018;-70
2023/10/28 04:28:49;;;;;;;4.45;2.20;;;;;;;9.11;100.00;99368.41;5018140;28;20077;-70
2023/10/28 04:31:15;;;;;;;5.63;2.33;;;;;;;9.12;100.00;99370.97;5008323;28;20189;-70
2023/10/28 04:33:41;;;;;;;7.93;2.10;;;;;;;9.14;100.00;99371.72;5008838;28;20048;-70
2023/10/28 04:36:09;;;;;;;4.68;2.08;;;;;;;9.14;100.00;99371.72;5008416;28;20049;-70
2023/10/28 04:38:36;;;;;;;4.80;2.30;;;;;;;9.15;100.00;99370.72;5009505;28;20060;-70
2023/10/28 04:41:02;;;;;;;5.30;2.95;;;;;;;9.17;100.00;99365.13;5009990;28;20042;-70
2023/10/28 04:43:27;;;;;;;4.63;1.92;;;;;;;9.18;100.00;99361.41;5009946;28;20048;-72
2023/10/28 04:45:52;;;;;;;4.80;2.08;;;;;;;9.18;100.00;99364.97;5011641;28;20037;-70
2023/10/28 04:48:18;;;;;;;3.60;1.98;;;;;;;9.20;100.00;99364.88;5016133;28;20029;-70
2023/10/28 04:50:44;;;;;;;7.13;2.22;;;;;;;9.20;100.00;99367.59;5009197;28;20034;-70
2023/10/28 04:53:10;;;;;;;3.00;1.88;;;;;;;9.22;100.00;99362.00;5007987;28;20473;-71
2023/10/28 04:55:35;;;;;;;7.10;2.08;;;;;;;9.21;100.00;99350.28;5010141;28;20119;-70
2023/10/28 04:58:02;;;;;;;6.53;2.40;;;;;;;9.23;100.00;99351.00;5009522;28;20042;-71
2023/10/28 05:00:28;;;;;;;5.45;2.38;;;;;;;9.23;100.00;99355.56;5009457;28;20038;-73
2023/10/28 05:02:53;;;;;;;7.18;1.95;;;;;;;9.24;100.00;99355.47;5028070;28;20040;-70
2023/10/28 05:05:19;;;;;;;6.05;2.00;;;;;;;9.25;100.00;99354.44;5030400;28;20038;-71
2023/10/28 05:07:44;;;;;;;6.47;1.90;;;;;;;9.26;100.00;99358.03;5032451;28;20053;-71
2023/10/28 05:10:10;;;;;;;7.68;1.95;;;;;;;9.28;100.00;99347.88;5032814;28;20055;-71
2023/10/28 05:12:38;;;;;;;5.50;2.22;;;;;;;9.26;100.00;99348.03;5032422;28;20037;-70
2023/10/28 05:15:06;;;;;;;9.50;1.92;;;;;;;9.29;100.00;99341.47;5031741;28;20037;-70
2023/10/28 05:17:32;;;;;;;8.52;3.45;;;;;;;9.29;100.00;99349.63;5013303;28;20437;-70
2023/10/28 05:19:57;;;;;;;5.25;1.88;;;;;;;9.28;100.00;99342.44;5013035;28;20030;-70
2023/10/28 05:22:22;;;;;;;7.82;2.60;;;;;;;9.32;100.00;99344.75;5011896;28;20044;-70
2023/10/28 05:24:48;;;;;;;4.13;2.22;;;;;;;9.32;100.00;99343.88;5012741;28;20046;-70
2023/10/28 05:27:13;;;;;;;6.57;2.65;;;;;;;9.32;100.00;99354.75;5012585;28;20102;-72
2023/10/28 05:29:39;;;;;;;4.47;2.03;;;;;;;9.31;100.00;99344.88;5013216;28;20065;-70
2023/10/28 05:32:04;;;;;;;7.55;2.05;;;;;;;9.30;100.00;99343.19;5015639;28;20090;-70
2023/10/28 05:34:29;;;;;;;3.58;2.17;;;;;;;9.31;100.00;99353.03;5032263;28;20049;-71
2023/10/28 05:36:55;;;;;;;7.75;1.70;;;;;;;9.33;100.00;99348.34;5024947;28;20030;-70
2023/10/28 05:39:21;;;;;;;5.13;2.05;;;;;;;9.30;100.00;99345.91;5031177;28;20025;-69
2023/10/28 05:41:47;;;;;;;7.90;2.13;;;;;;;9.30;100.00;99349.47;5029737;28;20033;-70
2023/10/28 05:44:14;;;;;;;5.57;1.63;;;;;;;9.31;100.00;99348.44;5028905;28;20025;-70
2023/10/28 05:46:40;;;;;;;5.05;2.00;;;;;;;9.31;100.00;99347.59;5030481;28;20044;-72
2023/10/28 05:49:05;;;;;;;3.08;2.03;;;;;;;9.32;100.00;99350.16;5030573;28;20041;-70
2023/10/28 05:51:35;;;;;;;8.75;1.83;;;;;;;9.34;100.00;99355.47;5018536;28;20029;-70
2023/10/28 05:54:01;;;;;;;6.80;2.47;;;;;;;9.34;100.00;99366.34;5030068;28;20389;-70
2023/10/28 05:56:27;;;;;;;4.38;1.95;;;;;;;9.31;100.00;99359.31;5030364;28;20040;-70
2023/10/28 05:58:53;;;;;;;5.88;2.20;;;;;;;9.32;100.00;99368.31;5031518;28;20701;-70
2023/10/28 06:01:19;;;;;;;2.28;1.63;;;;;;;9.30;100.00;99370.31;5011541;28;20091;-69
2023/10/28 06:03:44;;;;;;;4.28;1.50;;;;;;;9.30;100.00;99371.16;5028325;28;20363;-69
2023/10/28 06:06:09;;;;;;;5.80;2.28;;;;;;;9.29;100.00;99377.59;5031159;28;20049;-71
2023/10/28 06:08:35;;;;;;;8.52;2.25;;;;;;;9.30;100.00;99379.31;5029921;28;20516;-70
2023/10/28 06:11:00;;;;;;;9.10;1.80;;;;;;;9.31;100.00;99377.44;5031247;28;20037;-70
2023/10/28 06:13:26;;;;;;;5.40;1.58;;;;;;;9.29;100.00;99371.31;5018284;28;20038;-71
2023/10/28 06:15:51;;;;;;;5.70;1.98;;;;;;;9.33;100.00;99375.47;5023394;28;20041;-71
2023/10/28 06:18:19;;;;;;;2.97;1.92;;;;;;;9.33;100.00;99373.63;5013484;28;20046;-70
2023/10/28 06:20:47;;;;;;;5.13;2.53;;;;;;;9.32;100.00;99368.31;5013079;28;20389;-70
2023/10/28 06:23:13;;;;;;;3.45;2.00;;;;;;;9.31;100.00;99385.59;5009350;28;20457;-70
2023/10/28 06:25:39;;;;;;;7.80;2.05;;;;;;;9.31;100.00;99375.59;5026429;28;20033;-70
2023/10/28 06:28:05;;;;;;;6.57;1.92;;;;;;;9.34;100.00;99382.63;5029111;28;20029;-71
2023/10/28 06:30:31;;;;;;;8.30;1.85;;;;;;;9.36;100.00;99386.03;5030594;28;20037;-70
2023/10/28 06:32:56;;;;;;;3.35;1.73;;;;;;;9.38;100.00;99384.91;5030202;28;20116;-69
2023/10/28 06:35:21;;;;;;;7.63;2.35;;;;;;;9.40;100.00;99387.47;5029123;28;20477;-70
2023/10/28 06:37:47;;;;;;;6.03;2.05;;;;;;;9.43;100.00;99385.34;5018576;28;20429;-70
2023/10/28 06:40:12;;;;;;;7.97;2.28;;;;;;;9.46;100.00;99381.47;5027473;28;20064;-71
2023/10/28 06:42:38;;;;;;;6.88;2.42;;;;;;;9.48;100.00;99395.78;5014710;28;20050;-70
2023/10/28 06:45:05;;;;;;;4.97;1.48;;;;;;;9.49;100.00;99380.34;5003137;28;20034;-70
2023/10/28 06:47:32;;;;;;;4.95;2.00;;;;;;;9.52;100.00;99382.78;4993042;28;20029;-70
2023/10/28 06:49:59;;;;;;;4.60;1.70;;;;;;;9.55;100.00;99374.34;4991349;28;20039;-72
2023/10/28 06:52:25;;;;;;;4.50;2.00;;;;;;;9.56;100.00;99382.38;4983480;28;20486;-70
2023/10/28 06:54:51;;;;;;;5.85;2.13;;;;;;;9.59;100.00;99382.06;5010815;28;20193;-70
2023/10/28 06:57:17;;;;;;;7.75;2.20;;;;;;;9.60;100.00;99381.06;5001070;28;20193;-70
2023/10/28 06:59:42;;;;;;;5.20;1.48;;;;;;;9.62;100.00;99389.94;4989985;28;20066;-70
2023/10/28 07:02:07;;;;;;;3.53;1.60;;;;;;;9.64;100.00;99390.66;4990033;28;20460;-70
2023/10/28 07:04:33;;;;;;;2.95;1.48;;;;;;;9.67;100.00;99384.09;4991117;28;20466;-71
2023/10/28 07:06:58;;;;;;;5.65;1.80;;;;;;;9.68;100.00;99383.94;4997195;28;20517;-71
2023/10/28 07:09:23;;;;;;;5.07;1.92;;;;;;;9.69;100.00;99384.78;5007267;28;20501;-71
2023/10/28 07:11:50;;;;;;;5.32;1.88;;;;;;;9.71;100.00;99388.25;4999371;28;20038;-72
2023/10/28 07:14:15;;;;;;;6.53;2.10;;;;;;;9.74;100.00;99389.81;5003597;28;20034;-72
2023/10/28 07:16:41;;;;;;;3.72;1.77;;;;;;;9.75;100.00;99395.13;4991369;28;20046;-69
2023/10/28 07:19:07;;;;;;;4.05;1.65;;;;;;;9.78;100.00;99397.53;4995603;28;20518;-69
2023/10/28 07:21:33;;;;;;;6.47;1.83;;;;;;;9.81;100.00;99397.25;5002558;28;20045;-71
2023/10/28 07:24:00;;;;;;;7.70;3.00;;;;;;;9.83;100.00;99395.25;5010353;28;20028;-70
2023/10/28 07:26:28;;;;;;;5.60;2.03;;;;;;;9.86;100.00;99397.69;4999634;28;20034;-70
2023/10/28 07:28:54;;;;;;;4.60;1.88;;;;;;;9.84;100.00;99387.94;4990396;28;20372;-72
2023/10/28 07:31:20;;;;;;;5.72;2.22;;;;;;;9.86;100.00;99394.97;4992527;28;20038;-70
2023/10/28 07:33:46;;;;;;;6.90;3.22;;;;;;;9.89;100.00;99404.69;5001648;28;20049;-69
2023/10/28 07:36:12;;;;;;;6.22;2.00;;;;;;;9.90;100.00;99398.25;5005027;28;20042;-70
2023/10/28 07:38:38;;;;;;;3.75;2.17;;;;;;;9.96;100.00;99408.56;4996477;28;20160;-69
2023/10/28 07:41:04;;;;;;;6.47;2.05;;;;;;;10.01;100.00;99400.81;4995183;28;20042;-70
2023/10/28 07:43:30;;;;;;;6.60;2.17;;;;;;;10.07;100.00;99402.09;5041349;28;20867;-70
2023/10/28 07:45:56;;;;;;;7.40;2.03;;;;;;;10.15;100.00;99402.25;5001073;28;20034;-70
2023/10/28 07:48:21;;;;;;;5.18;1.92;;;;;;;10.21;100.00;99401.66;4990058;28;20475;-71
2023/10/28 07:50:48;;;;;;;6.63;1.85;;;;;;;10.29;100.00;99409.13;5000925;28;20039;-70
2023/10/28 07:53:13;;;;;;;6.78;2.25;;;;;;;10.35;100.00;99412.16;4989562;28;20395;-70
2023/10/28 07:55:39;;;;;;;3.42;1.90;;;;;;;10.44;100.00;99418.56;4989814;28;20042;-69
2023/10/28 07:58:08;;;;;;;6.22;2.45;;;;;;;10.51;100.00;99411.53;5020697;28;20038;-71
2023/10/28 08:00:39;;;;;;;10.43;1.88;;;;;;;10.57;100.00;99421.81;4988774;28;20039;-71
2023/10/28 08:03:04;;;;;;;12.98;2.13;;;;;;;10.60;100.00;99424.28;4988986;28;20042;-70
2023/10/28 08:05:29;;;;;;;2.70;1.88;;;;;;;10.66;100.00;99428.25;4989366;28;20022;-72
2023/10/28 08:07:55;;;;;;;4.53;1.73;;;;;;;10.70;100.00;99433.25;4997791;28;20092;-71
2023/10/28 08:10:23;;;;;;;9.02;1.90;;;;;;;10.76;100.00;99450.00;5005053;28;20073;-71
2023/10/28 08:12:52;;;;;;;7.70;1.77;;;;;;;10.81;100.00;99436.81;5008384;28;20022;-70
2023/10/28 08:15:21;;;;;;;5.90;1.73;;;;;;;10.87;100.00;99439.81;5000752;28;20478;-71
2023/10/28 08:17:47;;;;;;;8.05;2.13;;;;;;;10.95;100.00;99445.34;4993977;28;20096;-70
2023/10/28 08:20:14;;;;;;;7.65;1.75;;;;;;;11.04;100.00;99443.59;4990043;28;20113;-71
2023/10/28 08:22:40;;;;;;;6.60;2.50;;;;;;;11.13;100.00;99441.84;5001323;28;20054;-70
2023/10/28 08:25:06;;;;;;;12.40;4.50;;;;;;;11.16;100.00;99439.69;5002312;28;20092;-71
2023/10/28 08:27:32;;;;;;;5.85;1.70;;;;;;;11.15;100.00;99438.00;4989379;28;20037;-72
2023/10/28 08:29:58;;;;;;;8.23;1.77;;;;;;;11.17;100.00;99441.41;5001387;28;20045;-73
2023/10/28 08:32:23;;;;;;;3.35;1.33;;;;;;;11.19;100.00;99447.56;4991171;28;20093;-71
2023/10/28 08:34:49;;;;;;;7.43;1.92;;;;;;;11.23;100.00;99442.66;4989804;28;20125;-70
2023/10/28 08:37:15;;;;;;;11.38;2.03;;;;;;;11.30;100.00;99451.13;4989350;28;20121;-72
2023/10/28 08:39:41;;;;;;;8.15;2.05;;;;;;;11.33;100.00;99448.94;5004222;28;20209;-71
2023/10/28 08:42:06;;;;;;;6.78;2.13;;;;;;;11.35;100.00;99457.81;5011619;28;20034;-71
2023/10/28 08:44:33;;;;;;;8.40;1.85;;;;;;;11.37;100.00;99455.78;4994673;28;20497;-70
2023/10/28 08:47:00;;;;;;;8.07;1.50;;;;;;;11.43;100.00;99465.25;4993264;28;21233;-71
2023/10/28 08:49:27;;;;;;;16.88;2.45;;;;;;;11.49;100.00;99456.47;4993347;28;20045;-70
2023/10/28 08:51:58;;;;;;;6.82;2.03;;;;;;;11.56;100.00;99457.56;4999559;28;20065;-71
2023/10/28 08:54:26;;;;;;;4.90;1.67;;;;;;;11.66;100.00;99465.69;4993379;28;20035;-73
2023/10/28 08:56:54;;;;;;;4.30;1.50;;;;;;;11.84;100.00;99473.91;4999051;28;20125;-71
2023/10/28 08:59:20;;;;;;;8.02;2.33;;;;;;;11.94;100.00;99467.41;4993192;28;20482;-71
2023/10/28 09:01:46;;;;;;;8.75;1.98;;;;;;;12.03;100.00;99472.94;4993048;28;20060;-71
2023/10/28 09:04:11;;;;;;;11.30;2.10;;;;;;;12.08;100.00;99481.53;4995863;28;20474;-71
2023/10/28 09:06:37;;;;;;;7.20;1.35;;;;;;;12.12;100.00;99474.72;4988503;28;20548;-71
2023/10/28 09:09:06;;;;;;;8.77;1.75;;;;;;;12.12;100.00;99475.59;4991481;28;20034;-71
2023/10/28 09:11:31;;;;;;;3.67;2.15;;;;;;;12.27;100.00;99488.72;5011990;28;20133;-71
2023/10/28 09:13:58;;;;;;;5.68;1.70;;;;;;;12.32;100.00;99476.31;4992123;28;20541;-72
2023/10/28 09:16:24;;;;;;;12.15;1.50;;;;;;;12.36;100.00;99476.88;5027380;28;20117;-72
2023/10/28 09:18:49;;;;;;;5.40;1.48;;;;;;;12.46;100.00;99477.63;4992722;28;20128;-71
2023/10/28 09:21:15;;;;;;;8.38;1.67;;;;;;;12.52;100.00;99477.00;4992312;28;20041;-71
2023/10/28 09:23:44;;;;;;;7.03;1.63;;;;;;;12.65;100.00;99476.59;4992280;28;20050;-71
2023/10/28 09:26:09;;;;;;;5.97;1.83;;;;;;;12.72;100.00;99486.69;4992310;28;20038;-71
2023/10/28 09:28:42;;;;;;;3.25;1.60;;;;;;;12.80;100.00;99479.59;4992363;28;20046;-71
2023/10/28 09:31:07;;;;;;;7.05;2.08;;;;;;;12.88;100.00;99482.41;4992559;28;20056;-71
2023/10/28 09:33:32;;;;;;;4.97;1.40;;;;;;;12.91;100.00;99484.78;4992201;28;20422;-72
2023/10/28 09:35:58;;;;;;;7.82;1.55;;;;;;;12.96;100.00;99493.34;4992231;28;20459;-72
2023/10/28 09:38:24;;;;;;;5.07;1.92;;;;;;;12.97;100.00;99489.63;4992354;28;20044;-71
2023/10/28 09:40:50;;;;;;;9.10;1.60;;;;;;;12.94;100.00;99482.63;4992487;28;20121;-71
2023/10/28 09:43:15;;;;;;;12.80;1.55;;;;;;;12.87;100.00;99481.56;4992369;28;20057;-71
2023/10/28 09:45:49;;;;;;;5.82;1.50;;;;;;;12.85;100.00;99486.28;4992368;28;20077;-71
2023/10/28 09:48:18;;;;;;;14.15;1.70;;;;;;;12.82;100.00;99485.75;4992006;28;20081;-73
2023/10/28 09:50:49;;;;;;;7.50;2.17;;;;;;;12.89;100.00;99489.56;4991336;28;20022;-71
2023/10/28 09:53:23;;;;;;;6.03;1.42;;;;;;;12.99;100.00;99491.19;4991805;28;20057;-71
2023/10/28 09:55:52;;;;;;;6.10;1.40;;;;;;;13.11;100.00;99490.94;4992327;28;20504;-73
2023/10/28 09:58:24;;;;;;;8.68;1.55;;;;;;;13.19;100.00;99488.22;4991838;28;20042;-70
2023/10/28 10:01:04;;;;;;;5.35;1.50;;;;;;;13.21;100.00;99478.00;4991942;28;20085;-71
2023/10/28 10:03:50;;;;;;;4.22;1.40;;;;;;;13.21;100.00;99489.78;4991750;28;20045;-71
2023/10/28 10:06:16;;;;;;;5.35;1.40;;;;;;;13.16;100.00;99472.19;4993534;28;20108;-71
2023/10/28 10:08:50;;;;;;;8.40;1.45;;;;;;;13.19;100.00;99489.06;5011317;28;20042;-71
2023/10/28 10:11:24;;;;;;;7.07;1.52;;;;;;;13.21;99.79;99483.47;5009917;28;20113;-71
2023/10/28 10:13:49;;;;;;;4.57;1.33;;;;;;;13.24;100.00;99483.16;5011100;28;20044;-71
2023/10/28 10:16:30;;;;;;;5.70;1.20;;;;;;;13.31;100.00;99494.31;4994458;28;20022;-72
2023/10/28 10:18:58;;;;;;;4.32;1.27;;;;;;;13.35;100.00;99496.56;4991704;28;20347;-71
2023/10/28 10:21:31;;;;;;;7.47;1.08;;;;;;;13.40;100.00;99496.94;4997831;28;20034;-71
2023/10/28 10:24:04;;;;;;;9.32;1.98;;;;;;;13.37;98.62;99496.41;4998329;28;20058;-71
2023/10/28 10:26:34;;;;;;;6.05;1.30;;;;;;;13.31;99.24;99503.38;5010402;28;20768;-71
2023/10/28 10:29:06;;;;;;;5.80;1.50;;;;;;;13.34;100.00;99499.47;4997573;28;20125;-71
2023/10/28 10:31:36;;;;;;;5.00;1.20;;;;;;;13.38;96.35;99500.84;5039016;28;20068;-71
2023/10/28 10:34:09;;;;;;;9.35;1.80;;;;;;;13.36;94.66;99503.72;4998699;28;20390;-72
2023/10/28 10:36:40;;;;;;;10.43;1.77;;;;;;;13.32;94.73;99498.75;4999244;28;20038;-72
2023/10/28 10:39:18;;;;;;;9.10;1.60;;;;;;;13.39;99.34;99506.16;4990939;28;20049;-71
2023/10/28 10:41:51;;;;;;;11.98;1.65;;;;;;;13.39;94.82;99502.56;4994898;28;20030;-72
2023/10/28 10:44:36;;;;;;;5.38;1.60;;;;;;;13.38;95.77;99503.56;5000140;28;20053;-71
2023/10/28 10:47:03;;;;;;;6.07;1.33;;;;;;;13.41;97.25;99503.25;4994601;28;20065;-71
2023/10/28 10:49:30;;;;;;;10.68;1.73;;;;;;;13.37;93.93;99501.84;5025076;28;20126;-71
2023/10/28 10:51:58;;;;;;;6.97;1.92;;;;;;;13.36;95.73;99500.16;5002800;28;20054;-73
2023/10/28 10:54:38;;;;;;;6.00;1.50;;;;;;;13.37;96.28;99497.25;5009275;28;20112;-71
2023/10/28 10:57:06;;;;;;;5.82;1.52;;;;;;;13.45;96.90;99502.75;5010663;28;20042;-72
2023/10/28 10:59:38;;;;;;;4.90;1.38;;;;;;;13.53;96.63;99491.88;4995546;28;20073;-71
2023/10/28 11:02:04;;;;;;;7.15;1.80;;;;;;;13.64;97.66;99501.66;4990337;28;20048;-71
2023/10/28 11:04:30;;;;;;;5.32;1.52;;;;;;;13.70;95.08;99495.53;4990652;28;20026;-71
2023/10/28 11:06:56;;;;;;;9.02;1.75;;;;;;;13.72;94.56;99500.84;4990956;28;20050;-71
2023/10/28 11:09:22;;;;;;;9.45;1.88;;;;;;;13.74;94.25;99493.31;4989249;28;20046;-72
2023/10/28 11:11:49;;;;;;;8.32;1.90;;;;;;;13.73;93.39;99497.94;4990568;28;20042;-71
2023/10/28 11:14:14;;;;;;;8.88;2.05;;;;;;;13.76;93.53;99485.84;4990731;28;20125;-71
2023/10/28 11:16:41;;;;;;;5.85;1.70;;;;;;;13.76;92.22;99483.97;4990279;28;20407;-73
2023/10/28 11:19:08;;;;;;;7.07;1.73;;;;;;;13.82;94.91;99490.63;4990203;28;20373;-72
2023/10/28 11:21:35;;;;;;;7.25;1.95;;;;;;;13.77;91.27;99482.94;4990443;28;20052;-71
2023/10/28 11:24:01;;;;;;;6.88;1.75;;;;;;;13.75;90.95;99484.94;4990469;28;20405;-72
2023/10/28 11:26:27;;;;;;;9.32;2.33;;;;;;;13.73;91.18;99483.41;5007615;28;20037;-71